Time;durP1;ratioP1;P1;durP2;ratioP2;P2;SDS_P1;SDS_P2;PMS_P1;PMS_P2;Temp;Humidity;BMP_temperature;BMP_pressure;BME280_temperature;BME280_humidity;BME280_pressure;Samples;Min_cycle;Max_cycle;Signal;HPM_P1;HPM_P2
2022/04/23 00:00:50;;;;;;;21.38;17.70;;;;;;;9.44;87.22;100295.06;5346467;27;20350;-62
2022/04/23 00:03:21;;;;;;;21.27;17.75;;;;;;;9.37;87.23;100291.22;5351822;27;20461;-62
2022/04/23 00:05:52;;;;;;;21.23;17.92;;;;;;;9.38;87.36;100293.75;5348052;27;20035;-62
2022/04/23 00:08:24;;;;;;;20.10;17.15;;;;;;;9.33;87.05;100292.44;5345913;27;20026;-62
2022/04/23 00:10:55;;;;;;;20.80;17.67;;;;;;;9.32;87.55;100288.06;5350412;27;20072;-62
2022/04/23 00:13:26;;;;;;;20.48;17.35;;;;;;;9.32;88.08;100291.59;5348505;27;20065;-62
2022/04/23 00:15:58;;;;;;;21.83;17.77;;;;;;;9.21;88.18;100297.75;5346209;27;20041;-63
2022/04/23 00:18:29;;;;;;;21.67;17.08;;;;;;;9.26;88.59;100289.41;5345217;27;20491;-62
2022/04/23 00:21:00;;;;;;;21.70;17.67;;;;;;;9.16;88.99;100291.94;5350881;27;20355;-63
2022/04/23 00:23:33;;;;;;;19.40;17.30;;;;;;;9.12;88.94;100298.47;5350192;27;20026;-62
2022/04/23 00:26:05;;;;;;;20.60;17.63;;;;;;;9.18;89.85;100292.66;5350637;27;20050;-62
2022/04/23 00:28:36;;;;;;;22.30;18.23;;;;;;;9.17;89.80;100296.31;5350183;27;20125;-62
2022/04/23 00:31:07;;;;;;;20.83;18.35;;;;;;;9.14;89.31;100296.53;5347900;27;20035;-62
2022/04/23 00:33:39;;;;;;;21.60;17.33;;;;;;;8.97;89.19;100291.72;5350312;27;20076;-63
2022/04/23 00:36:11;;;;;;;23.40;18.23;;;;;;;9.05;89.97;100293.78;5354232;27;20030;-62
2022/04/23 00:38:44;;;;;;;22.65;18.52;;;;;;;9.01;90.04;100294.03;5346345;27;20026;-62
2022/04/23 00:44:05;;;;;;;23.15;18.88;;;;;;;8.98;91.01;100296.09;5350598;27;20496;-62
2022/04/23 00:46:37;;;;;;;20.90;17.85;;;;;;;8.91;90.76;100298.38;5350985;27;20035;-62
2022/04/23 00:49:08;;;;;;;23.63;19.27;;;;;;;8.88;90.97;100295.09;5346089;27;20027;-62
2022/04/23 00:51:41;;;;;;;21.58;18.33;;;;;;;8.89;91.42;100294.13;5331766;27;20472;-62
2022/04/23 00:54:13;;;;;;;25.00;19.35;;;;;;;8.83;91.30;100292.81;5350014;27;20105;-62
2022/04/23 00:56:45;;;;;;;25.13;19.08;;;;;;;8.77;91.93;100290.63;5349344;27;20041;-62
2022/04/23 00:59:17;;;;;;;23.75;19.92;;;;;;;8.79;91.93;100284.22;5348250;27;20098;-62
2022/04/23 01:01:53;;;;;;;23.45;19.30;;;;;;;8.75;92.70;100285.41;5350481;27;20527;-62
2022/04/23 01:04:24;;;;;;;23.77;18.98;;;;;;;8.75;92.44;100285.41;5347531;27;20464;-62
2022/04/23 01:06:55;;;;;;;25.00;19.42;;;;;;;8.71;92.52;100285.78;5348005;27;20111;-62
2022/04/23 01:09:27;;;;;;;24.95;19.52;;;;;;;8.72;92.69;100290.97;5350261;27;20037;-62
2022/04/23 01:12:00;;;;;;;24.35;19.00;;;;;;;8.70;92.70;100289.41;5351032;27;20087;-62
2022/04/23 01:14:31;;;;;;;24.00;18.75;;;;;;;8.70;93.02;100289.41;5348624;27;20064;-62
2022/04/23 01:17:03;;;;;;;22.58;19.20;;;;;;;8.60;93.11;100289.28;5351187;27;20436;-62
2022/04/23 01:19:34;;;;;;;23.02;19.63;;;;;;;8.63;93.62;100284.56;5348056;27;20026;-62
2022/04/23 01:22:06;;;;;;;25.25;19.17;;;;;;;8.59;93.79;100284.91;5347224;27;20396;-62
2022/04/23 01:24:37;;;;;;;25.85;20.23;;;;;;;8.56;93.67;100291.31;5349283;27;20488;-62
2022/04/23 01:27:10;;;;;;;25.42;20.85;;;;;;;8.59;94.43;100285.78;5344107;27;20038;-62
2022/04/23 01:29:41;;;;;;;23.98;19.60;;;;;;;8.52;93.94;100286.38;5350689;27;20033;-62
2022/04/23 01:32:12;;;;;;;25.95;19.23;;;;;;;8.52;94.15;100281.03;5346783;27;20030;-62
2022/04/23 01:34:43;;;;;;;26.67;20.80;;;;;;;8.51;94.44;100289.97;5347757;27;20121;-62
2022/04/23 01:37:17;;;;;;;27.50;21.25;;;;;;;8.59;94.92;100295.53;5349896;27;20030;-62
2022/04/23 01:39:48;;;;;;;25.50;21.02;;;;;;;8.54;94.82;100284.44;5353481;27;20397;-62
2022/04/23 01:42:20;;;;;;;24.98;20.40;;;;;;;8.51;94.62;100295.28;5348404;27;20030;-63
2022/04/23 01:44:52;;;;;;;25.88;20.77;;;;;;;8.55;94.80;100296.75;5346657;27;20487;-62
2022/04/23 01:47:23;;;;;;;24.42;21.25;;;;;;;8.49;95.34;100292.75;5351804;27;20442;-62
2022/04/23 01:49:54;;;;;;;28.77;20.90;;;;;;;8.46;95.05;100298.31;5349187;27;20041;-62
2022/04/23 01:52:26;;;;;;;26.15;21.23;;;;;;;8.50;95.61;100293.63;5347727;27;20034;-62
2022/04/23 01:54:57;;;;;;;25.85;21.17;;;;;;;8.48;95.57;100299.03;5348674;27;20057;-62
2022/04/23 01:57:28;;;;;;;29.20;21.85;;;;;;;8.42;95.56;100295.03;5350786;27;20037;-63
2022/04/23 02:00:00;;;;;;;27.98;22.52;;;;;;;8.40;95.70;100298.75;5347061;27;20053;-62
2022/04/23 02:02:31;;;;;;;26.65;22.02;;;;;;;8.47;96.26;100294.69;5342047;27;20014;-62
2022/04/23 02:05:04;;;;;;;30.25;23.33;;;;;;;8.45;96.32;100299.25;5348752;27;20026;-62
2022/04/23 02:07:37;;;;;;;26.83;23.05;;;;;;;8.40;96.17;100296.94;5351408;27;20449;-62
2022/04/23 02:10:10;;;;;;;28.73;23.17;;;;;;;8.41;96.64;100303.09;5345452;27;20057;-62
2022/04/23 02:12:43;;;;;;;28.50;23.07;;;;;;;8.44;96.62;100300.25;5349402;27;20480;-62
2022/04/23 02:15:15;;;;;;;29.55;22.63;;;;;;;8.40;96.55;100302.25;5346969;27;20046;-62
2022/04/23 02:17:49;;;;;;;27.50;22.65;;;;;;;8.41;96.82;100293.34;5347044;27;20082;-62
2022/04/23 02:20:23;;;;;;;28.73;23.92;;;;;;;8.36;97.09;100298.13;5347039;27;20034;-62
2022/04/23 02:22:54;;;;;;;28.98;23.23;;;;;;;8.39;96.92;100289.06;5349954;27;20015;-62
2022/04/23 02:25:25;;;;;;;29.27;23.73;;;;;;;8.37;96.90;100289.19;5347404;27;20495;-62
2022/04/23 02:27:56;;;;;;;30.10;24.10;;;;;;;8.34;97.26;100294.75;5348233;27;20560;-62
2022/04/23 02:30:28;;;;;;;31.83;25.73;;;;;;;8.37;97.79;100296.31;5343803;27;20527;-62
2022/04/23 02:33:00;;;;;;;31.70;25.58;;;;;;;8.31;97.67;100294.97;5353672;27;20027;-62
2022/04/23 02:35:34;;;;;;;32.47;25.48;;;;;;;8.26;97.38;100291.81;5346493;27;20045;-62
2022/04/23 02:38:05;;;;;;;32.95;25.67;;;;;;;8.31;97.67;100288.81;5348839;27;20042;-62
2022/04/23 02:40:38;;;;;;;31.63;25.75;;;;;;;8.29;98.29;100291.59;5349079;27;20091;-62
2022/04/23 02:43:12;;;;;;;31.77;26.48;;;;;;;8.28;98.42;100289.03;5351587;27;20456;-62
2022/04/23 02:45:44;;;;;;;32.40;25.90;;;;;;;8.29;98.37;100296.06;5347766;27;20019;-62
2022/04/23 02:48:16;;;;;;;32.08;26.13;;;;;;;8.31;99.02;100294.97;5351826;27;20492;-62
2022/04/23 02:50:47;;;;;;;32.58;26.42;;;;;;;8.29;98.89;100282.78;5343347;27;20888;-62
2022/04/23 02:53:18;;;;;;;33.50;26.77;;;;;;;8.29;99.13;100290.75;5345879;27;20052;-63
2022/04/23 02:55:51;;;;;;;34.05;27.13;;;;;;;8.30;98.92;100287.09;5344854;27;20062;-63
2022/04/23 02:58:25;;;;;;;32.60;26.85;;;;;;;8.30;99.64;100289.78;5339604;27;20982;-62
2022/04/23 03:00:56;;;;;;;33.85;26.50;;;;;;;8.28;99.15;100286.38;5340673;27;20034;-62
2022/04/23 03:03:28;;;;;;;35.20;27.77;;;;;;;8.26;99.07;100278.53;5354821;27;20023;-62
2022/04/23 03:05:59;;;;;;;33.33;27.25;;;;;;;8.27;99.67;100274.91;5352257;27;20094;-62
2022/04/23 03:08:31;;;;;;;34.15;27.70;;;;;;;8.23;100.00;100276.13;5346475;27;20027;-62
2022/04/23 03:11:02;;;;;;;38.25;28.20;;;;;;;8.25;99.81;100282.16;5343674;27;20023;-62
2022/04/23 03:13:35;;;;;;;35.28;28.48;;;;;;;8.24;100.00;100277.78;5351310;27;20026;-62
2022/04/23 03:16:07;;;;;;;37.13;28.70;;;;;;;8.24;100.00;100278.63;5347654;27;20042;-63
2022/04/23 03:18:38;;;;;;;35.90;28.30;;;;;;;8.20;99.93;100277.16;5344683;27;20498;-62
2022/04/23 03:21:10;;;;;;;38.63;30.38;;;;;;;8.22;100.00;100280.56;5348378;27;20444;-62
2022/04/23 03:23:41;;;;;;;35.97;28.73;;;;;;;8.19;100.00;100277.31;5351209;27;20050;-62
2022/04/23 03:26:12;;;;;;;37.58;28.83;;;;;;;8.17;100.00;100276.56;5328309;27;20030;-62
2022/04/23 03:28:43;;;;;;;36.22;29.40;;;;;;;8.17;100.00;100281.88;5346090;27;20027;-62
2022/04/23 03:31:15;;;;;;;35.08;28.35;;;;;;;8.14;100.00;100274.16;5344491;27;20539;-62
2022/04/23 03:33:46;;;;;;;37.88;30.08;;;;;;;8.11;100.00;100274.38;5348822;27;20358;-62
2022/04/23 03:36:18;;;;;;;39.35;30.27;;;;;;;8.16;100.00;100277.53;5351643;27;20430;-63
2022/04/23 03:38:49;;;;;;;35.22;29.10;;;;;;;8.11;100.00;100271.72;5345936;27;20035;-63
2022/04/23 03:41:20;;;;;;;37.35;29.92;;;;;;;8.10;100.00;100272.69;5344305;27;20031;-62
2022/04/23 03:43:52;;;;;;;36.85;30.40;;;;;;;8.13;100.00;100270.66;5345064;27;20151;-62
2022/04/23 03:46:23;;;;;;;38.00;30.83;;;;;;;8.09;100.00;100265.66;5346247;27;20125;-62
2022/04/23 03:48:54;;;;;;;39.25;30.80;;;;;;;8.13;100.00;100259.16;5343891;27;20086;-62
2022/04/23 03:51:26;;;;;;;40.20;31.35;;;;;;;8.08;100.00;100270.13;5349789;27;20121;-62
2022/04/23 03:53:57;;;;;;;37.58;31.05;;;;;;;8.07;100.00;100270.25;5343526;27;20661;-62
2022/04/23 03:56:28;;;;;;;36.47;29.90;;;;;;;8.07;100.00;100268.44;5348174;27;20033;-62
2022/04/23 03:59:00;;;;;;;39.35;30.13;;;;;;;8.04;100.00;100258.06;5351857;27;20039;-62
2022/04/23 04:01:31;;;;;;;39.72;31.17;;;;;;;8.05;100.00;100263.25;5350624;27;20033;-62
2022/04/23 04:04:02;;;;;;;40.40;30.77;;;;;;;8.05;100.00;100260.59;5346688;27;20115;-62
2022/04/23 04:06:34;;;;;;;39.40;30.92;;;;;;;8.00;100.00;100262.75;5347666;27;20619;-62
2022/04/23 04:09:05;;;;;;;40.42;30.40;;;;;;;8.00;100.00;100261.91;5343622;27;20586;-63
2022/04/23 04:14:26;;;;;;;39.55;30.90;;;;;;;7.92;100.00;100257.16;5345482;27;20038;-63
2022/04/23 04:17:03;;;;;;;38.53;31.02;;;;;;;7.94;100.00;100255.25;5329074;27;20055;-63
2022/04/23 04:19:34;;;;;;;37.65;30.70;;;;;;;7.96;100.00;100260.44;5343091;27;20034;-62
2022/04/23 04:22:06;;;;;;;39.22;31.25;;;;;;;7.93;100.00;100242.91;5345890;27;20030;-63
2022/04/23 04:24:38;;;;;;;37.70;30.85;;;;;;;7.95;100.00;100256.09;5343654;27;20629;-62
2022/04/23 04:27:09;;;;;;;40.55;31.17;;;;;;;7.97;100.00;100247.03;5346095;27;20119;-62
2022/04/23 04:29:41;;;;;;;41.72;32.50;;;;;;;7.92;100.00;100246.56;5341264;27;20532;-62
2022/04/23 04:32:13;;;;;;;38.38;30.80;;;;;;;7.95;100.00;100253.44;5348188;27;20027;-62
2022/04/23 04:34:44;;;;;;;37.92;30.40;;;;;;;7.93;100.00;100250.88;5348336;27;20484;-63
2022/04/23 04:37:16;;;;;;;39.38;31.08;;;;;;;7.92;100.00;100243.03;5348101;27;20031;-62
2022/04/23 04:39:47;;;;;;;42.85;31.60;;;;;;;7.94;100.00;100249.94;5352819;27;20039;-62
2022/04/23 04:42:19;;;;;;;42.53;32.92;;;;;;;7.94;100.00;100252.59;5349424;27;20364;-62
2022/04/23 04:44:50;;;;;;;42.47;32.25;;;;;;;7.94;100.00;100249.94;5345702;27;20083;-63
2022/04/23 04:47:21;;;;;;;40.25;31.05;;;;;;;7.98;100.00;100261.19;5345254;27;20497;-62
2022/04/23 04:49:54;;;;;;;42.25;31.60;;;;;;;7.99;100.00;100254.88;5350001;27;20027;-62
2022/04/23 04:52:25;;;;;;;40.38;32.08;;;;;;;7.95;100.00;100256.91;5350422;27;20611;-63
2022/04/23 04:54:56;;;;;;;39.90;31.55;;;;;;;7.98;100.00;100255.88;5347769;27;20023;-63
2022/04/23 04:57:27;;;;;;;41.30;31.00;;;;;;;8.03;100.00;100262.53;5347505;27;20063;-62
2022/04/23 04:59:59;;;;;;;40.28;31.65;;;;;;;8.04;100.00;100258.06;5349023;27;20073;-63
2022/04/23 05:02:30;;;;;;;38.65;30.27;;;;;;;8.11;100.00;100266.41;5348996;27;20022;-62
2022/04/23 05:05:01;;;;;;;38.97;31.38;;;;;;;8.10;100.00;100264.72;5350804;27;20043;-63
2022/04/23 05:07:32;;;;;;;38.35;30.92;;;;;;;8.15;100.00;100262.53;5347739;27;20117;-62
2022/04/23 05:10:04;;;;;;;39.22;30.92;;;;;;;8.11;100.00;100269.06;5349834;27;20642;-63
2022/04/23 05:12:35;;;;;;;40.13;30.95;;;;;;;8.16;100.00;100270.41;5346037;27;20645;-63
2022/04/23 05:15:07;;;;;;;39.67;32.10;;;;;;;8.19;100.00;100272.84;5351801;27;20484;-63
2022/04/23 05:17:39;;;;;;;39.38;31.75;;;;;;;8.23;100.00;100268.97;5351834;27;20047;-63
2022/04/23 05:20:10;;;;;;;40.75;31.33;;;;;;;8.23;100.00;100268.97;5352536;27;20030;-62
2022/04/23 05:22:42;;;;;;;41.22;32.00;;;;;;;8.26;100.00;100270.53;5346644;27;20106;-62
2022/04/23 05:25:13;;;;;;;39.58;31.85;;;;;;;8.33;100.00;100265.63;5348895;27;20027;-63
2022/04/23 05:27:44;;;;;;;39.60;31.77;;;;;;;8.35;100.00;100267.19;5349313;27;20028;-62
2022/04/23 05:30:15;;;;;;;39.33;30.88;;;;;;;8.41;100.00;100264.09;5350870;27;20064;-63
2022/04/23 05:32:47;;;;;;;37.28;30.10;;;;;;;8.44;100.00;100269.19;5351251;27;20030;-63
2022/04/23 05:35:19;;;;;;;39.63;29.85;;;;;;;8.48;100.00;100269.78;5349194;27;20109;-63
2022/04/23 05:37:50;;;;;;;37.72;30.50;;;;;;;8.51;100.00;100269.53;5353306;27;20400;-62
2022/04/23 05:40:22;;;;;;;41.05;31.17;;;;;;;8.57;100.00;100262.91;5347924;27;20050;-63
2022/04/23 05:42:57;;;;;;;36.35;29.42;;;;;;;8.61;100.00;100254.59;5352047;27;20031;-62
2022/04/23 05:45:29;;;;;;;37.47;29.50;;;;;;;8.68;100.00;100268.25;5347646;27;20114;-63
2022/04/23 05:48:01;;;;;;;38.97;30.63;;;;;;;8.72;100.00;100261.72;5350189;27;20117;-62
2022/04/23 05:50:32;;;;;;;37.25;30.70;;;;;;;8.77;100.00;100267.53;5349864;27;20044;-63
2022/04/23 05:53:03;;;;;;;36.30;29.10;;;;;;;8.83;100.00;100268.88;5351236;27;20053;-63
2022/04/23 05:55:35;;;;;;;37.65;31.25;;;;;;;8.87;100.00;100264.16;5347210;27;20027;-62
2022/04/23 05:58:06;;;;;;;61.40;32.40;;;;;;;8.93;100.00;100264.50;5351297;27;20037;-62
2022/04/23 06:00:37;;;;;;;34.17;29.23;;;;;;;8.99;100.00;100265.81;5349583;27;20094;-62
2022/04/23 06:03:09;;;;;;;34.40;28.27;;;;;;;9.05;100.00;100262.72;5351724;27;20023;-63
2022/04/23 06:05:41;;;;;;;41.53;29.77;;;;;;;9.13;100.00;100259.44;5348931;27;20480;-62
2022/04/23 06:08:12;;;;;;;47.22;30.33;;;;;;;9.18;100.00;100270.53;5350145;27;20137;-63
2022/04/23 06:10:43;;;;;;;36.13;30.13;;;;;;;9.22;99.98;100259.53;5350688;27;20027;-63
2022/04/23 06:13:15;;;;;;;32.95;28.10;;;;;;;9.30;99.97;100263.38;5354287;27;20033;-63
2022/04/23 06:15:46;;;;;;;33.83;28.63;;;;;;;9.36;99.84;100257.59;5347496;27;20027;-62
2022/04/23 06:18:18;;;;;;;34.22;29.08;;;;;;;9.40;99.31;100259.03;5351540;27;20046;-63
2022/04/23 06:20:49;;;;;;;33.65;28.23;;;;;;;9.48;99.13;100266.38;5350003;27;20026;-63
2022/04/23 06:23:20;;;;;;;34.90;29.13;;;;;;;9.54;98.22;100257.91;5351265;27;20393;-63
2022/04/23 06:25:52;;;;;;;33.28;28.25;;;;;;;9.62;98.88;100263.44;5350883;27;20050;-62
2022/04/23 06:28:23;;;;;;;34.83;27.67;;;;;;;9.66;97.60;100251.53;5332434;27;20041;-62
2022/04/23 06:30:55;;;;;;;31.70;27.88;;;;;;;9.72;97.44;100255.53;5348347;27;20031;-63
2022/04/23 06:33:26;;;;;;;34.97;28.45;;;;;;;9.81;97.50;100258.28;5349787;27;20062;-62
2022/04/23 06:35:57;;;;;;;33.17;28.02;;;;;;;9.90;96.65;100264.66;5354048;27;20091;-62
2022/04/23 06:38:28;;;;;;;35.00;27.60;;;;;;;9.97;96.67;100265.84;5357900;27;20019;-62
2022/04/23 06:41:00;;;;;;;31.52;27.15;;;;;;;10.05;95.82;100261.69;5357134;27;20034;-62
2022/04/23 06:43:31;;;;;;;32.53;28.13;;;;;;;10.15;95.73;100263.47;5359650;27;20038;-63
2022/04/23 06:46:03;;;;;;;32.58;27.65;;;;;;;10.25;94.61;100257.38;5354381;27;20365;-63
2022/04/23 06:48:34;;;;;;;32.38;26.80;;;;;;;10.35;94.38;100261.78;5355988;27;20498;-63
2022/04/23 06:51:06;;;;;;;31.05;26.48;;;;;;;10.45;93.98;100253.88;5337629;27;20087;-63
2022/04/23 06:53:37;;;;;;;31.98;27.02;;;;;;;10.55;93.22;100253.94;5358097;27;20224;-63
2022/04/23 06:56:08;;;;;;;29.23;26.02;;;;;;;10.67;92.21;100260.03;5360881;27;20030;-63
2022/04/23 06:58:39;;;;;;;30.60;26.92;;;;;;;10.78;92.05;100250.13;5355341;27;21504;-64
2022/04/23 07:01:11;;;;;;;33.95;26.63;;;;;;;10.91;91.55;100246.38;5357046;27;20026;-64
2022/04/23 07:03:42;;;;;;;30.60;25.95;;;;;;;11.01;90.09;100239.25;5355696;27;20023;-63
2022/04/23 07:06:15;;;;;;;30.30;26.02;;;;;;;11.13;88.96;100242.66;5353652;27;20030;-63
2022/04/23 07:08:47;;;;;;;31.92;26.92;;;;;;;11.19;89.52;100234.09;5356693;27;20042;-62
2022/04/23 07:11:18;;;;;;;28.40;25.30;;;;;;;11.35;88.41;100241.59;5357731;27;20041;-63
2022/04/23 07:13:49;;;;;;;28.48;25.38;;;;;;;11.43;87.54;100232.88;5358399;27;20029;-63
2022/04/23 07:16:21;;;;;;;29.25;25.15;;;;;;;11.50;86.54;100239.38;5359431;27;20041;-62
2022/04/23 07:18:52;;;;;;;29.02;24.27;;;;;;;11.57;86.43;100238.69;5353281;27;20018;-63
2022/04/23 07:21:23;;;;;;;30.58;25.38;;;;;;;11.73;86.46;100237.28;5354606;27;20511;-63
2022/04/23 07:24:05;;;;;;;28.58;24.83;;;;;;;11.86;85.35;100231.66;5337674;27;20504;-62
2022/04/23 07:26:38;;;;;;;28.67;24.88;;;;;;;12.00;85.89;100235.75;5357611;27;20441;-63
2022/04/23 07:29:10;;;;;;;29.13;24.75;;;;;;;12.07;84.55;100242.25;5356907;27;20029;-63
2022/04/23 07:31:42;;;;;;;28.88;25.02;;;;;;;12.16;83.15;100236.88;5356626;27;20037;-63
2022/04/23 07:39:56;;;;;;;27.00;24.05;;;;;;;12.48;80.90;100229.50;5342608;27;20038;-63
2022/04/23 07:42:28;;;;;;;27.48;23.85;;;;;;;12.57;79.72;100233.97;5358704;27;20025;-63
2022/04/23 07:45:00;;;;;;;27.02;23.98;;;;;;;12.69;79.49;100221.25;5356512;27;20030;-63
2022/04/23 07:47:31;;;;;;;27.98;23.33;;;;;;;12.79;79.29;100223.88;5352970;27;20083;-62
2022/04/23 07:50:04;;;;;;;27.17;22.60;;;;;;;12.91;78.97;100223.56;5351702;27;20034;-63
2022/04/23 07:52:35;;;;;;;27.67;23.00;;;;;;;13.04;77.91;100208.97;5337840;27;20035;-63
2022/04/23 07:55:07;;;;;;;25.48;22.67;;;;;;;13.10;77.09;100219.94;5349865;27;20497;-63
2022/04/23 07:57:39;;;;;;;25.08;22.23;;;;;;;13.24;74.54;100213.25;5354991;27;20026;-63
2022/04/23 08:00:10;;;;;;;24.48;21.63;;;;;;;13.42;75.24;100223.19;5349963;27;20023;-63
2022/04/23 08:02:41;;;;;;;32.00;21.25;;;;;;;13.41;75.08;100216.97;5353826;27;20033;-63
2022/04/23 08:05:13;;;;;;;28.08;21.42;;;;;;;13.53;73.42;100214.91;5352020;27;20564;-63
2022/04/23 08:07:44;;;;;;;24.10;20.50;;;;;;;13.74;72.70;100209.25;5353264;27;20027;-63
2022/04/23 08:10:16;;;;;;;23.70;20.70;;;;;;;13.78;72.83;100210.63;5352538;27;20054;-63
2022/04/23 08:12:47;;;;;;;27.90;21.20;;;;;;;13.93;70.71;100213.63;5355282;27;20038;-63
2022/04/23 08:15:18;;;;;;;23.05;20.60;;;;;;;14.02;70.67;100195.75;5346576;27;20051;-63
2022/04/23 08:17:50;;;;;;;22.23;19.83;;;;;;;14.23;69.97;100206.13;5352918;27;20100;-64
2022/04/23 08:20:21;;;;;;;25.98;20.08;;;;;;;14.43;69.67;100206.78;5354052;27;20092;-63
2022/04/23 08:22:53;;;;;;;22.20;19.85;;;;;;;14.43;69.48;100204.09;5351706;27;20034;-64
2022/04/23 08:25:24;;;;;;;22.42;20.02;;;;;;;14.45;67.66;100202.09;5352104;27;20037;-62
2022/04/23 08:30:34;;;;;;;23.27;19.40;;;;;;;14.46;68.34;100204.63;5351585;27;20019;-63
2022/04/23 08:30:48;;;;;;;22.10;19.05;;;;;;;14.56;67.14;100196.44;5352425;27;20213;-64
2022/04/23 08:33:19;;;;;;;21.98;19.52;;;;;;;14.74;67.39;100193.72;5354384;27;20181;-64
2022/04/23 08:35:50;;;;;;;22.27;19.33;;;;;;;14.80;66.63;100202.97;5357072;27;20023;-65
2022/04/23 08:38:21;;;;;;;23.88;19.80;;;;;;;14.92;66.71;100190.94;5352781;27;20050;-65
2022/04/23 08:40:53;;;;;;;22.95;20.23;;;;;;;15.10;65.87;100196.22;5348229;27;20025;-64
2022/04/23 08:43:24;;;;;;;25.73;20.50;;;;;;;15.06;65.80;100198.38;5357602;27;20069;-63
2022/04/23 08:45:55;;;;;;;20.83;18.60;;;;;;;15.20;65.04;100185.31;5354619;27;20250;-64
2022/04/23 08:48:30;;;;;;;23.50;20.83;;;;;;;15.43;63.96;100193.59;5359294;27;20033;-63
2022/04/23 08:51:02;;;;;;;23.10;20.70;;;;;;;15.51;62.77;100198.16;5352531;27;20082;-64
2022/04/23 08:53:40;;;;;;;22.42;19.83;;;;;;;15.55;62.81;100202.19;5357980;27;20114;-63
2022/04/23 08:56:11;;;;;;;24.83;20.63;;;;;;;15.72;64.30;100193.13;5360545;27;20454;-64
2022/04/23 08:58:43;;;;;;;25.30;21.33;;;;;;;15.80;63.39;100203.97;5361434;27;20058;-63
2022/04/23 09:01:14;;;;;;;24.83;21.10;;;;;;;15.88;62.36;100197.75;5355843;27;20035;-64
2022/04/23 09:03:45;;;;;;;23.95;21.45;;;;;;;15.85;61.74;100204.28;5360472;27;20027;-63
2022/04/23 09:06:16;;;;;;;24.33;21.02;;;;;;;15.72;63.07;100209.28;5353307;27;20033;-64
2022/04/23 09:09:26;;;;;;;23.98;21.00;;;;;;;15.95;64.65;100205.97;5356230;27;20034;-64
2022/04/23 09:11:58;;;;;;;29.58;22.45;;;;;;;16.17;61.00;100204.47;5244818;28;22434;-63
2022/04/23 09:14:33;;;;;;;24.23;21.60;;;;;;;16.39;61.25;100217.19;5240750;28;20406;-63
2022/04/23 09:25:48;;;;;;;26.88;23.67;;;;;;;16.81;57.40;100223.31;5344992;27;20039;-65
2022/04/23 09:28:26;;;;;;;28.02;23.10;;;;;;;16.72;58.57;100211.75;5361601;27;20517;-63
2022/04/23 09:30:59;;;;;;;26.73;24.00;;;;;;;16.88;59.01;100205.50;5353141;27;20089;-63
2022/04/23 09:33:51;;;;;;;26.75;24.08;;;;;;;17.00;59.03;100209.47;5354944;27;20099;-63
2022/04/23 09:36:22;;;;;;;29.00;26.00;;;;;;;17.04;57.59;100216.19;5355765;27;20114;-63
2022/04/23 09:39:01;;;;;;;27.17;24.48;;;;;;;17.10;57.50;100216.50;5351078;27;20872;-65
2022/04/23 09:41:33;;;;;;;28.42;25.50;;;;;;;17.25;57.58;100206.66;5355955;27;20030;-63
2022/04/23 09:44:07;;;;;;;27.02;24.20;;;;;;;17.45;57.49;100207.06;5352911;27;20023;-64
2022/04/23 09:46:44;;;;;;;28.25;25.35;;;;;;;17.60;55.96;100209.81;5348932;27;20089;-63
2022/04/23 09:49:21;;;;;;;27.25;24.45;;;;;;;17.58;56.49;100207.28;5348486;27;20030;-64
2022/04/23 09:52:00;;;;;;;27.38;24.63;;;;;;;17.52;57.20;100210.72;5355350;27;20018;-64
2022/04/23 09:54:32;;;;;;;27.40;24.73;;;;;;;17.33;55.12;100206.63;5347367;27;20027;-63
2022/04/23 09:57:04;;;;;;;27.67;25.02;;;;;;;17.44;57.12;100195.44;5356185;27;20042;-64
2022/04/23 09:59:36;;;;;;;26.58;23.80;;;;;;;17.63;56.66;100199.50;5355003;27;20037;-64
2022/04/23 10:02:13;;;;;;;27.67;24.77;;;;;;;17.71;55.21;100195.91;5352670;27;20050;-64
2022/04/23 10:04:45;;;;;;;27.45;24.70;;;;;;;17.75;55.09;100201.78;5351890;27;20704;-64
2022/04/23 10:07:17;;;;;;;28.77;25.75;;;;;;;17.58;54.62;100192.97;5351441;27;20380;-64
2022/04/23 10:09:49;;;;;;;28.15;25.25;;;;;;;17.45;54.72;100190.91;5352984;27;20018;-64
2022/04/23 10:12:22;;;;;;;28.98;26.00;;;;;;;17.35;56.15;100201.88;5350523;27;20038;-64
2022/04/23 10:14:59;;;;;;;27.58;24.65;;;;;;;17.42;55.84;100185.84;5351357;27;20023;-64
2022/04/23 10:17:31;;;;;;;26.70;23.92;;;;;;;17.47;56.09;100182.59;5349898;27;20062;-64
2022/04/23 10:20:04;;;;;;;25.90;23.23;;;;;;;17.53;55.25;100173.81;5348085;27;20030;-63
2022/04/23 10:22:51;;;;;;;28.75;24.42;;;;;;;17.55;55.40;100169.91;5350160;27;20035;-64
2022/04/23 10:25:45;;;;;;;26.95;24.00;;;;;;;17.52;54.92;100182.91;5353216;27;20034;-63
2022/04/23 10:28:18;;;;;;;26.77;24.02;;;;;;;17.49;55.64;100176.03;5354086;27;20027;-63
2022/04/23 10:31:11;;;;;;;28.63;23.95;;;;;;;17.57;55.23;100175.13;5343332;27;20142;-63
2022/04/23 10:33:44;;;;;;;26.67;24.08;;;;;;;17.56;54.69;100171.56;5345622;27;20027;-64
2022/04/23 10:36:16;;;;;;;26.40;23.80;;;;;;;17.77;55.18;100186.25;5353003;27;20041;-64
2022/04/23 10:38:52;;;;;;;27.38;24.67;;;;;;;17.83;54.44;100180.13;5354826;27;20018;-64
2022/04/23 10:41:25;;;;;;;26.35;23.55;;;;;;;17.66;53.96;100184.00;5359518;27;20077;-63
2022/04/23 10:44:04;;;;;;;26.42;23.80;;;;;;;17.66;55.23;100181.28;5358277;27;20432;-63
2022/04/23 10:46:42;;;;;;;26.25;23.73;;;;;;;17.75;53.79;100178.34;5356083;27;20063;-64
2022/04/23 10:49:18;;;;;;;26.90;23.83;;;;;;;17.78;54.72;100180.69;5352475;27;20350;-64
2022/04/23 10:51:53;;;;;;;27.08;24.35;;;;;;;17.80;53.60;100178.66;5349621;27;20030;-64
2022/04/23 10:54:39;;;;;;;27.52;24.38;;;;;;;17.90;55.22;100177.59;5354611;27;20337;-64
2022/04/23 10:57:14;;;;;;;26.80;24.10;;;;;;;18.00;53.69;100183.56;5349448;27;20030;-63
2022/04/23 10:59:47;;;;;;;27.08;24.38;;;;;;;18.07;52.96;100172.91;5346070;27;20042;-63
2022/04/23 11:02:19;;;;;;;26.93;23.83;;;;;;;18.07;53.08;100176.44;5353433;27;20051;-63
2022/04/23 11:12:14;;;;;;;28.23;25.43;;;;;;;18.22;53.06;100169.19;5351386;27;20785;-63
2022/04/23 11:13:35;;;;;;;24.52;22.17;;;;;;;18.55;54.11;100168.84;5360657;27;20510;-63
2022/04/23 11:16:09;;;;;;;23.58;21.27;;;;;;;18.70;53.54;100171.56;5354176;27;20046;-64
2022/04/23 11:18:42;;;;;;;25.48;23.08;;;;;;;18.72;51.75;100166.81;5361696;27;20038;-63
2022/04/23 11:21:15;;;;;;;24.10;21.60;;;;;;;18.86;52.81;100162.44;5356111;27;20027;-64
2022/04/23 11:23:47;;;;;;;24.88;22.33;;;;;;;19.11;50.11;100157.53;5362650;27;20525;-63
2022/04/23 11:26:26;;;;;;;22.92;20.67;;;;;;;19.23;50.59;100160.56;5364941;27;20019;-63
2022/04/23 11:28:59;;;;;;;24.65;21.85;;;;;;;19.37;50.32;100167.00;5353063;27;20041;-63
2022/04/23 11:31:30;;;;;;;25.13;22.60;;;;;;;19.56;49.52;100155.53;5361927;27;20018;-64
2022/04/23 11:34:02;;;;;;;27.35;21.75;;;;;;;19.65;49.25;100152.69;5365958;27;20439;-64
2022/04/23 11:36:36;;;;;;;24.65;21.83;;;;;;;19.68;48.14;100161.25;5357576;27;20058;-63
2022/04/23 11:39:09;;;;;;;22.92;20.58;;;;;;;19.47;49.92;100167.50;5363198;27;20018;-63
2022/04/23 11:41:43;;;;;;;23.43;21.23;;;;;;;19.63;48.33;100149.34;5355778;27;20039;-63
2022/04/23 11:44:14;;;;;;;23.33;20.92;;;;;;;19.64;49.17;100151.84;5364827;27;20292;-64
2022/04/23 11:46:51;;;;;;;24.52;22.02;;;;;;;19.65;47.82;100155.41;5362300;27;20102;-63
2022/04/23 11:49:29;;;;;;;23.75;21.27;;;;;;;19.59;48.77;100148.88;5353840;27;20083;-64
2022/04/23 11:52:05;;;;;;;23.58;21.10;;;;;;;19.73;48.02;100137.19;5363486;27;20496;-63
2022/04/23 11:54:37;;;;;;;23.08;20.73;;;;;;;19.83;47.73;100136.88;5362853;27;20026;-63
2022/04/23 11:57:11;;;;;;;22.17;19.95;;;;;;;19.75;47.74;100145.09;5364417;27;20049;-64
2022/04/23 11:59:44;;;;;;;25.17;22.00;;;;;;;19.52;47.73;100140.72;5363277;27;20053;-64
2022/04/23 12:02:23;;;;;;;23.65;21.00;;;;;;;19.37;47.95;100145.34;5358387;27;20022;-63